Ag Nektarios Aiginas — SX7083 — position and weather

sailwx.info

Track history (hours):
 
Tides and Currents Weather Stations Pressure Air Temp Water Temp Dewpoint Dewpoint Depression Visibility Wind Speed Wind Dir Waves Ship Positions

Ag Nektarios Aiginas

Last reported at 2014-Dec-20 13:33 UTC. Time now 2014-Dec-20 18:37 UTC.
Position N 37°57' E 023°39'.

Length 75 m; draft 2.7 m.

Type: Passenger vessel. MMSI: 237021400.

Date/timePositionNaut miles runAvg speedWind from/ knotsBaromVisibWave heightAir tempDewpointWater temp
2014-Dec-20 13:33N 37°57' E 023°39'1010.5
2014-Dec-20 12:33N 37°49' E 023°30'5 4.2
2014-Dec-20 11:18N 37°45' E 023°25'1012.9
2014-Dec-20 10:33N 37°52' E 023°33'6 6.3
2014-Dec-20 09:33N 37°57' E 023°39'4 3.9
2014-Dec-20 08:33N 37°54' E 023°35'9 4.4
2014-Dec-20 06:33N 37°47' E 023°27'1312.6
2014-Dec-20 05:33N 37°57' E 023°38'0 0.0
2014-Dec-19 17:33N 37°57' E 023°39'1111.1
2014-Dec-19 16:33N 37°49' E 023°29'5 3.9
2014-Dec-19 15:23N 37°46' E 023°25'1113.0
2014-Dec-19 14:33N 37°53' E 023°35'5 4.7
2014-Dec-19 13:33N 37°57' E 023°38'0 0.0
2014-Dec-19 11:33N 37°57' E 023°38'1211.7
2014-Dec-19 10:33N 37°48' E 023°29'4 3.4
2014-Dec-19 09:18N 37°45' E 023°25'912.7
2014-Dec-19 08:33N 37°52' E 023°33'6 6.4
2014-Dec-19 07:33N 37°57' E 023°38'0 0.0
2014-Dec-18 18:33N 37°57' E 023°38'1110.8
2014-Dec-18 17:33N 37°49' E 023°29'5 3.8
2014-Dec-18 16:16N 37°46' E 023°25'913.1
2014-Dec-18 15:33N 37°52' E 023°33'6 6.5
2014-Dec-18 14:33N 37°57' E 023°38'0 0.0
2014-Dec-18 11:33N 37°57' E 023°38'1211.8
2014-Dec-18 10:33N 37°48' E 023°28'4 3.4
2014-Dec-18 09:19N 37°45' E 023°25'912.4
2014-Dec-18 08:33N 37°51' E 023°33'7 6.7
2014-Dec-18 07:33N 37°57' E 023°39'1 0.1
2014-Dec-17 18:33N 37°56' E 023°38'1212.2
2014-Dec-17 17:33N 37°47' E 023°27'3 2.9
2014-Dec-17 16:32N 37°46' E 023°24'1111.5
2014-Dec-17 15:33N 37°53' E 023°35'5 4.8
2014-Dec-17 14:33N 37°57' E 023°39'2 0.6
2014-Dec-17 11:33N 37°55' E 023°37'1010.0
2014-Dec-17 10:33N 37°47' E 023°30'5 4.6
2014-Dec-17 09:33N 37°45' E 023°25'1110.8
2014-Dec-17 08:33N 37°53' E 023°34'5 5.2
2014-Dec-17 07:32N 37°57' E 023°38'0 0.0
2014-Dec-16 18:31N 37°57' E 023°38'1212.3
2014-Dec-16 17:33N 37°48' E 023°28'4 3.4
2014-Dec-16 16:21N 37°45' E 023°25'1012.2
2014-Dec-16 15:33N 37°52' E 023°33'6 6.0
2014-Dec-16 14:30N 37°57' E 023°38'0 0.0
2014-Dec-16 11:34N 37°57' E 023°38'1111.5
2014-Dec-16 10:34N 37°48' E 023°29'4 4.2
2014-Dec-16 09:32N 37°45' E 023°25'9 9.6
2014-Dec-16 08:34N 37°52' E 023°33'6 6.4
2014-Dec-16 07:34N 37°57' E 023°39'0 0.0
2014-Dec-15 18:34N 37°57' E 023°39'1110.6
2014-Dec-15 17:33N 37°49' E 023°30'5 5.1
2014-Dec-15 16:33N 37°45' E 023°25'9 9.2
2014-Dec-15 15:34N 37°52' E 023°33'7 6.7
2014-Dec-15 14:33N 37°57' E 023°39'0 0.0
2014-Dec-15 13:33N 37°57' E 023°39'0 0.0
2014-Dec-15 11:33N 37°57' E 023°39'1111.1
2014-Dec-15 10:33N 37°49' E 023°29'5 4.7
2014-Dec-15 09:33N 37°45' E 023°25'9 9.3
2014-Dec-15 08:33N 37°52' E 023°33'6 6.5
2014-Dec-15 07:33N 37°57' E 023°39'0 0.0
2014-Dec-14 19:09N 37°57' E 023°39'4 7.4
2014-Dec-14 18:33N 37°53' E 023°35'1111.4
2014-Dec-14 17:33N 37°45' E 023°25'3 3.0
2014-Dec-14 16:33N 37°48' E 023°27'1312.9
2014-Dec-14 15:33N 37°57' E 023°38'3 3.3
2014-Dec-14 14:33N 37°54' E 023°35'1212.4
2014-Dec-14 13:33N 37°45' E 023°25'0 0.1
2014-Dec-14 12:32N 37°45' E 023°25'9 9.7
2014-Dec-14 11:33N 37°52' E 023°33'6 6.3
2014-Dec-14 10:33N 37°57' E 023°39'1211.5
2014-Dec-14 09:33N 37°48' E 023°29'4 4.3
2014-Dec-14 08:33N 37°45' E 023°25'10 9.9
2014-Dec-14 07:33N 37°52' E 023°34'6 5.9
2014-Dec-14 06:33N 37°57' E 023°38'0 0.0
2014-Dec-13 13:33N 37°57' E 023°38'1111.2
2014-Dec-13 12:34N 37°49' E 023°29'5 4.6
2014-Dec-13 11:33N 37°45' E 023°25'9 9.4
2014-Dec-13 10:34N 37°52' E 023°33'6 6.5
2014-Dec-13 09:33N 37°57' E 023°39'4 4.5
2014-Dec-13 08:34N 37°53' E 023°35'1111.3
2014-Dec-13 07:33N 37°45' E 023°25'3 3.2
2014-Dec-13 06:34N 37°48' E 023°27'1312.6
2014-Dec-13 05:34N 37°57' E 023°38'0 0.0
2014-Dec-12 17:33N 37°57' E 023°39'1111.2
2014-Dec-12 16:33N 37°49' E 023°29'5 4.6
2014-Dec-12 15:33N 37°45' E 023°25'9 9.2
2014-Dec-12 14:33N 37°52' E 023°33'7 6.6
2014-Dec-12 13:33N 37°57' E 023°39'0 0.1
2014-Dec-12 11:33N 37°57' E 023°38'1211.9
2014-Dec-12 10:33N 37°48' E 023°28'4 3.8
2014-Dec-12 09:33N 37°45' E 023°25'9 9.4
2014-Dec-12 08:33N 37°52' E 023°33'6 6.5
2014-Dec-12 07:33N 37°57' E 023°39'0 0.0
2014-Dec-11 18:34N 37°57' E 023°38'1111.4
2014-Dec-11 17:33N 37°48' E 023°29'4 4.3
2014-Dec-11 16:34N 37°45' E 023°25'9 9.5
2014-Dec-11 15:34N 37°52' E 023°34'6 6.3
2014-Dec-11 14:33N 37°57' E 023°38'0 0.0
2014-Dec-10 18:33N 37°57' E 023°38'1110.7
2014-Dec-10 17:33N 37°49' E 023°30'5 5.0
2014-Dec-10 16:33N 37°45' E 023°25'1110.7
2014-Dec-10 15:33N 37°53' E 023°34'5 5.0
2014-Dec-10 14:33N 37°57' E 023°38'  
Track history (hours):
 
Tides and Currents Weather Stations Pressure Air Temp Water Temp Dewpoint Dewpoint Depression Visibility Wind Speed Wind Dir Waves Ship Positions

Ag Nektarios Aiginas

Last reported at 2014-Dec-20 13:33 UTC. Time now 2014-Dec-20 18:37 UTC.
Position N 37°57' E 023°39'.

Length 75 m; draft 2.7 m.

Type: Passenger vessel. MMSI: 237021400.

Date/timePositionNaut miles runAvg speedWind from/ knotsBaromVisibWave heightAir tempDewpointWater temp
2014-Dec-20 13:33N 37°57' E 023°39'1010.5
2014-Dec-20 12:33N 37°49' E 023°30'5 4.2
2014-Dec-20 11:18N 37°45' E 023°25'1012.9
2014-Dec-20 10:33N 37°52' E 023°33'6 6.3
2014-Dec-20 09:33N 37°57' E 023°39'4 3.9
2014-Dec-20 08:33N 37°54' E 023°35'9 4.4
2014-Dec-20 06:33N 37°47' E 023°27'1312.6
2014-Dec-20 05:33N 37°57' E 023°38'0 0.0
2014-Dec-19 17:33N 37°57' E 023°39'1111.1
2014-Dec-19 16:33N 37°49' E 023°29'5 3.9
2014-Dec-19 15:23N 37°46' E 023°25'1113.0
2014-Dec-19 14:33N 37°53' E 023°35'5 4.7
2014-Dec-19 13:33N 37°57' E 023°38'0 0.0
2014-Dec-19 11:33N 37°57' E 023°38'1211.7
2014-Dec-19 10:33N 37°48' E 023°29'4 3.4
2014-Dec-19 09:18N 37°45' E 023°25'912.7
2014-Dec-19 08:33N 37°52' E 023°33'6 6.4
2014-Dec-19 07:33N 37°57' E 023°38'0 0.0
2014-Dec-18 18:33N 37°57' E 023°38'1110.8
2014-Dec-18 17:33N 37°49' E 023°29'5 3.8
2014-Dec-18 16:16N 37°46' E 023°25'913.1
2014-Dec-18 15:33N 37°52' E 023°33'6 6.5
2014-Dec-18 14:33N 37°57' E 023°38'0 0.0
2014-Dec-18 11:33N 37°57' E 023°38'1211.8
2014-Dec-18 10:33N 37°48' E 023°28'4 3.4
2014-Dec-18 09:19N 37°45' E 023°25'912.4
2014-Dec-18 08:33N 37°51' E 023°33'7 6.7
2014-Dec-18 07:33N 37°57' E 023°39'1 0.1
2014-Dec-17 18:33N 37°56' E 023°38'1212.2
2014-Dec-17 17:33N 37°47' E 023°27'3 2.9
2014-Dec-17 16:32N 37°46' E 023°24'1111.5
2014-Dec-17 15:33N 37°53' E 023°35'5 4.8
2014-Dec-17 14:33N 37°57' E 023°39'2 0.6
2014-Dec-17 11:33N 37°55' E 023°37'1010.0
2014-Dec-17 10:33N 37°47' E 023°30'5 4.6
2014-Dec-17 09:33N 37°45' E 023°25'1110.8
2014-Dec-17 08:33N 37°53' E 023°34'5 5.2
2014-Dec-17 07:32N 37°57' E 023°38'0 0.0
2014-Dec-16 18:31N 37°57' E 023°38'1212.3
2014-Dec-16 17:33N 37°48' E 023°28'4 3.4
2014-Dec-16 16:21N 37°45' E 023°25'1012.2
2014-Dec-16 15:33N 37°52' E 023°33'6 6.0
2014-Dec-16 14:30N 37°57' E 023°38'0 0.0
2014-Dec-16 11:34N 37°57' E 023°38'1111.5
2014-Dec-16 10:34N 37°48' E 023°29'4 4.2
2014-Dec-16 09:32N 37°45' E 023°25'9 9.6
2014-Dec-16 08:34N 37°52' E 023°33'6 6.4
2014-Dec-16 07:34N 37°57' E 023°39'0 0.0
2014-Dec-15 18:34N 37°57' E 023°39'1110.6
2014-Dec-15 17:33N 37°49' E 023°30'5 5.1
2014-Dec-15 16:33N 37°45' E 023°25'9 9.2
2014-Dec-15 15:34N 37°52' E 023°33'7 6.7
2014-Dec-15 14:33N 37°57' E 023°39'0 0.0
2014-Dec-15 13:33N 37°57' E 023°39'0 0.0
2014-Dec-15 11:33N 37°57' E 023°39'1111.1
2014-Dec-15 10:33N 37°49' E 023°29'5 4.7
2014-Dec-15 09:33N 37°45' E 023°25'9 9.3
2014-Dec-15 08:33N 37°52' E 023°33'6 6.5
2014-Dec-15 07:33N 37°57' E 023°39'0 0.0
2014-Dec-14 19:09N 37°57' E 023°39'4 7.4
2014-Dec-14 18:33N 37°53' E 023°35'1111.4
2014-Dec-14 17:33N 37°45' E 023°25'3 3.0
2014-Dec-14 16:33N 37°48' E 023°27'1312.9
2014-Dec-14 15:33N 37°57' E 023°38'3 3.3
2014-Dec-14 14:33N 37°54' E 023°35'1212.4
2014-Dec-14 13:33N 37°45' E 023°25'0 0.1
2014-Dec-14 12:32N 37°45' E 023°25'9 9.7
2014-Dec-14 11:33N 37°52' E 023°33'6 6.3
2014-Dec-14 10:33N 37°57' E 023°39'1211.5
2014-Dec-14 09:33N 37°48' E 023°29'4 4.3
2014-Dec-14 08:33N 37°45' E 023°25'10 9.9
2014-Dec-14 07:33N 37°52' E 023°34'6 5.9
2014-Dec-14 06:33N 37°57' E 023°38'0 0.0
2014-Dec-13 13:33N 37°57' E 023°38'1111.2
2014-Dec-13 12:34N 37°49' E 023°29'5 4.6
2014-Dec-13 11:33N 37°45' E 023°25'9 9.4
2014-Dec-13 10:34N 37°52' E 023°33'6 6.5
2014-Dec-13 09:33N 37°57' E 023°39'4 4.5
2014-Dec-13 08:34N 37°53' E 023°35'1111.3
2014-Dec-13 07:33N 37°45' E 023°25'3 3.2
2014-Dec-13 06:34N 37°48' E 023°27'1312.6
2014-Dec-13 05:34N 37°57' E 023°38'0 0.0
2014-Dec-12 17:33N 37°57' E 023°39'1111.2
2014-Dec-12 16:33N 37°49' E 023°29'5 4.6
2014-Dec-12 15:33N 37°45' E 023°25'9 9.2
2014-Dec-12 14:33N 37°52' E 023°33'7 6.6
2014-Dec-12 13:33N 37°57' E 023°39'0 0.1
2014-Dec-12 11:33N 37°57' E 023°38'1211.9
2014-Dec-12 10:33N 37°48' E 023°28'4 3.8
2014-Dec-12 09:33N 37°45' E 023°25'9 9.4
2014-Dec-12 08:33N 37°52' E 023°33'6 6.5
2014-Dec-12 07:33N 37°57' E 023°39'0 0.0
2014-Dec-11 18:34N 37°57' E 023°38'1111.4
2014-Dec-11 17:33N 37°48' E 023°29'4 4.3
2014-Dec-11 16:34N 37°45' E 023°25'9 9.5
2014-Dec-11 15:34N 37°52' E 023°34'6 6.3
2014-Dec-11 14:33N 37°57' E 023°38'0 0.0
2014-Dec-10 18:33N 37°57' E 023°38'1110.7
2014-Dec-10 17:33N 37°49' E 023°30'5 5.0
2014-Dec-10 16:33N 37°45' E 023°25'1110.7
2014-Dec-10 15:33N 37°53' E 023°34'5 5.0
2014-Dec-10 14:33N 37°57' E 023°38'  

Dump ship's entire track history